sensor_id;sensor_type;location;lat;lon;timestamp;pressure;altitude;pressure_sealevel;temperature;humidity
71976;BME280;60680;52.182;5.398;2022-12-20T00:01:17;101293.41;;;8.92;90.60
71976;BME280;60680;52.182;5.398;2022-12-20T00:03:44;101292.53;;;8.93;90.79
71976;BME280;60680;52.182;5.398;2022-12-20T00:06:12;101282.19;;;8.91;90.80
71976;BME280;60680;52.182;5.398;2022-12-20T00:08:42;101294.16;;;8.95;90.28
71976;BME280;60680;52.182;5.398;2022-12-20T00:11:08;101284.63;;;8.96;90.61
71976;BME280;60680;52.182;5.398;2022-12-20T00:13:36;101285.31;;;9.01;90.39
71976;BME280;60680;52.182;5.398;2022-12-20T00:16:14;101291.31;;;9.03;90.52
71976;BME280;60680;52.182;5.398;2022-12-20T00:18:41;101289.53;;;9.04;89.51
71976;BME280;60680;52.182;5.398;2022-12-20T00:21:10;101279.88;;;9.07;89.94
71976;BME280;60680;52.182;5.398;2022-12-20T00:23:37;101294.66;;;9.05;89.92
71976;BME280;60680;52.182;5.398;2022-12-20T00:26:09;101298.03;;;9.07;90.49
71976;BME280;60680;52.182;5.398;2022-12-20T00:28:38;101295.31;;;9.12;90.03
71976;BME280;60680;52.182;5.398;2022-12-20T00:31:05;101289.94;;;9.16;89.13
71976;BME280;60680;52.182;5.398;2022-12-20T00:33:33;101280.22;;;9.22;88.84
71976;BME280;60680;52.182;5.398;2022-12-20T00:36:00;101282.63;;;9.26;88.92
71976;BME280;60680;52.182;5.398;2022-12-20T00:38:26;101278.31;;;9.27;88.54
71976;BME280;60680;52.182;5.398;2022-12-20T00:43:27;101273.13;;;9.27;89.04
71976;BME280;60680;52.182;5.398;2022-12-20T00:45:53;101284.34;;;9.27;88.70
71976;BME280;60680;52.182;5.398;2022-12-20T00:48:20;101274.69;;;9.31;89.09
71976;BME280;60680;52.182;5.398;2022-12-20T00:50:47;101267.56;;;9.36;88.24
71976;BME280;60680;52.182;5.398;2022-12-20T00:53:13;101277.16;;;9.34;88.44
71976;BME280;60680;52.182;5.398;2022-12-20T00:55:44;101276.31;;;9.33;88.13
71976;BME280;60680;52.182;5.398;2022-12-20T00:58:12;101286.72;;;9.33;88.41
71976;BME280;60680;52.182;5.398;2022-12-20T01:00:39;101282.34;;;9.34;88.51
71976;BME280;60680;52.182;5.398;2022-12-20T01:03:06;101277.09;;;9.35;88.27
71976;BME280;60680;52.182;5.398;2022-12-20T01:05:33;101267.44;;;9.39;88.18
71976;BME280;60680;52.182;5.398;2022-12-20T01:07:59;101281.31;;;9.38;88.10
71976;BME280;60680;52.182;5.398;2022-12-20T01:10:26;101275.22;;;9.39;88.36
71976;BME280;60680;52.182;5.398;2022-12-20T01:12:53;101276.88;;;9.42;88.35
71976;BME280;60680;52.182;5.398;2022-12-20T01:15:20;101267.28;;;9.44;88.45
71976;BME280;60680;52.182;5.398;2022-12-20T01:17:46;101273.25;;;9.46;88.55
71976;BME280;60680;52.182;5.398;2022-12-20T01:20:13;101268.91;;;9.46;88.41
71976;BME280;60680;52.182;5.398;2022-12-20T01:22:40;101272.38;;;9.45;89.60
71976;BME280;60680;52.182;5.398;2022-12-20T01:25:12;101263.94;;;9.40;90.59
71976;BME280;60680;52.182;5.398;2022-12-20T01:27:39;101259.63;;;9.39;90.79
71976;BME280;60680;52.182;5.398;2022-12-20T01:30:07;101269.22;;;9.37;91.56
71976;BME280;60680;52.182;5.398;2022-12-20T01:32:33;101271.03;;;9.35;92.28
71976;BME280;60680;52.182;5.398;2022-12-20T01:35:00;101260.78;;;9.32;92.94
71976;BME280;60680;52.182;5.398;2022-12-20T01:37:26;101262.59;;;9.30;93.41
71976;BME280;60680;52.182;5.398;2022-12-20T01:39:53;101273.13;;;9.27;94.15
71976;BME280;60680;52.182;5.398;2022-12-20T01:42:19;101266.25;;;9.24;95.02
71976;BME280;60680;52.182;5.398;2022-12-20T01:44:57;101268.06;;;9.22;95.25
71976;BME280;60680;52.182;5.398;2022-12-20T01:47:24;101261.25;;;9.19;96.60
71976;BME280;60680;52.182;5.398;2022-12-20T01:49:54;101268.25;;;9.17;96.64
71976;BME280;60680;52.182;5.398;2022-12-20T01:52:42;101265.78;;;9.14;96.96
71976;BME280;60680;52.182;5.398;2022-12-20T01:55:23;101260.69;;;9.11;97.37
71976;BME280;60680;52.182;5.398;2022-12-20T01:57:57;101260.03;;;9.06;97.62
71976;BME280;60680;52.182;5.398;2022-12-20T02:00:24;101252.38;;;9.03;97.86
71976;BME280;60680;52.182;5.398;2022-12-20T02:02:51;101246.38;;;9.01;98.46
71976;BME280;60680;52.182;5.398;2022-12-20T02:05:19;101238.69;;;8.98;98.74
71976;BME280;60680;52.182;5.398;2022-12-20T02:07:48;101231.81;;;8.97;98.75
71976;BME280;60680;52.182;5.398;2022-12-20T02:10:15;101245.75;;;8.94;98.90
71976;BME280;60680;52.182;5.398;2022-12-20T02:12:44;101244.06;;;8.93;99.29
71976;BME280;60680;52.182;5.398;2022-12-20T02:15:42;101239.66;;;8.95;99.73
71976;BME280;60680;52.182;5.398;2022-12-20T02:31:08;101220.03;;;8.88;100.00
71976;BME280;60680;52.182;5.398;2022-12-20T02:33:38;101214.94;;;8.85;100.00
71976;BME280;60680;52.182;5.398;2022-12-20T02:36:07;101222.72;;;8.85;100.00
71976;BME280;60680;52.182;5.398;2022-12-20T02:38:36;101222.72;;;8.85;100.00
71976;BME280;60680;52.182;5.398;2022-12-20T02:41:12;101218.34;;;8.87;100.00
71976;BME280;60680;52.182;5.398;2022-12-20T02:43:43;101203.59;;;8.88;100.00
71976;BME280;60680;52.182;5.398;2022-12-20T02:46:31;101206.19;;;8.88;100.00
71976;BME280;60680;52.182;5.398;2022-12-20T02:49:00;101212.31;;;8.87;100.00
71976;BME280;60680;52.182;5.398;2022-12-20T02:51:31;101208.88;;;8.86;100.00
71976;BME280;60680;52.182;5.398;2022-12-20T02:53:59;101201.13;;;8.85;100.00
71976;BME280;60680;52.182;5.398;2022-12-20T02:56:31;101193.41;;;8.83;100.00
71976;BME280;60680;52.182;5.398;2022-12-20T02:59:06;101196.78;;;8.85;100.00
71976;BME280;60680;52.182;5.398;2022-12-20T03:01:40;101196.72;;;8.87;100.00
71976;BME280;60680;52.182;5.398;2022-12-20T03:04:10;101198.50;;;8.86;100.00
71976;BME280;60680;52.182;5.398;2022-12-20T03:06:39;101201.13;;;8.85;100.00
71976;BME280;60680;52.182;5.398;2022-12-20T03:09:05;101206.31;;;8.85;100.00
71976;BME280;60680;52.182;5.398;2022-12-20T03:11:31;101194.19;;;8.85;100.00
71976;BME280;60680;52.182;5.398;2022-12-20T03:13:59;101189.97;;;8.83;100.00
71976;BME280;60680;52.182;5.398;2022-12-20T03:16:25;101194.25;;;8.84;100.00
71976;BME280;60680;52.182;5.398;2022-12-20T03:18:52;101191.72;;;8.82;100.00
71976;BME280;60680;52.182;5.398;2022-12-20T03:21:18;101202.03;;;8.84;100.00
71976;BME280;60680;52.182;5.398;2022-12-20T03:23:44;101198.50;;;8.86;100.00
71976;BME280;60680;52.182;5.398;2022-12-20T03:26:11;101199.19;;;8.90;100.00
71976;BME280;60680;52.182;5.398;2022-12-20T03:28:37;101187.13;;;8.89;100.00
71976;BME280;60680;52.182;5.398;2022-12-20T03:31:04;101197.44;;;8.90;100.00
71976;BME280;60680;52.182;5.398;2022-12-20T03:33:31;101200.00;;;8.92;100.00
71976;BME280;60680;52.182;5.398;2022-12-20T03:35:57;101193.97;;;8.91;100.00
71976;BME280;60680;52.182;5.398;2022-12-20T03:38:24;101194.75;;;8.93;100.00
71976;BME280;60680;52.182;5.398;2022-12-20T03:40:51;101204.06;;;8.99;100.00
71976;BME280;60680;52.182;5.398;2022-12-20T03:43:17;101204.84;;;9.01;100.00
71976;BME280;60680;52.182;5.398;2022-12-20T03:45:43;101187.34;;;9.06;99.96
71976;BME280;60680;52.182;5.398;2022-12-20T03:48:10;101184.59;;;9.09;99.99
71976;BME280;60680;52.182;5.398;2022-12-20T03:50:36;101182.09;;;9.08;100.00
71976;BME280;60680;52.182;5.398;2022-12-20T03:53:03;101188.97;;;9.09;99.66
71976;BME280;60680;52.182;5.398;2022-12-20T03:55:30;101187.16;;;9.11;99.71
71976;BME280;60680;52.182;5.398;2022-12-20T03:57:56;101175.00;;;9.11;99.09
71976;BME280;60680;52.182;5.398;2022-12-20T04:00:23;101174.13;;;9.12;98.87
71976;BME280;60680;52.182;5.398;2022-12-20T04:02:50;101177.56;;;9.13;98.83
71976;BME280;60680;52.182;5.398;2022-12-20T04:05:19;101161.78;;;9.17;98.83
71976;BME280;60680;52.182;5.398;2022-12-20T04:07:46;101167.78;;;9.19;98.73
71976;BME280;60680;52.182;5.398;2022-12-20T04:10:13;101155.72;;;9.18;99.10
71976;BME280;60680;52.182;5.398;2022-12-20T04:12:45;101162.53;;;9.21;98.59
71976;BME280;60680;52.182;5.398;2022-12-20T04:15:14;101162.53;;;9.21;98.60
71976;BME280;60680;52.182;5.398;2022-12-20T04:17:44;101152.09;;;9.23;98.47
71976;BME280;60680;52.182;5.398;2022-12-20T04:20:14;101161.50;;;9.25;98.42
71976;BME280;60680;52.182;5.398;2022-12-20T04:22:46;101133.72;;;9.27;98.06
71976;BME280;60680;52.182;5.398;2022-12-20T04:25:20;101158.66;;;9.31;97.56
71976;BME280;60680;52.182;5.398;2022-12-20T04:27:49;101133.59;;;9.30;97.23
71976;BME280;60680;52.182;5.398;2022-12-20T04:30:19;101143.97;;;9.30;97.94
71976;BME280;60680;52.182;5.398;2022-12-20T04:32:46;101142.28;;;9.29;97.57
71976;BME280;60680;52.182;5.398;2022-12-20T04:35:13;101143.97;;;9.30;97.74
71976;BME280;60680;52.182;5.398;2022-12-20T04:37:43;101144.84;;;9.31;97.78
71976;BME280;60680;52.182;5.398;2022-12-20T04:40:12;101131.78;;;9.32;97.84
71976;BME280;60680;52.182;5.398;2022-12-20T04:42:42;101130.88;;;9.33;97.92
71976;BME280;60680;52.182;5.398;2022-12-20T04:47:44;101133.16;;;9.41;97.10
71976;BME280;60680;52.182;5.398;2022-12-20T04:50:11;101132.97;;;9.46;97.03
71976;BME280;60680;52.182;5.398;2022-12-20T04:52:37;101138.03;;;9.49;96.74
71976;BME280;60680;52.182;5.398;2022-12-20T04:55:22;101138.81;;;9.51;96.68
71976;BME280;60680;52.182;5.398;2022-12-20T04:57:49;101137.84;;;9.53;96.59
71976;BME280;60680;52.182;5.398;2022-12-20T05:00:16;101130.72;;;9.58;96.78
71976;BME280;60680;52.182;5.398;2022-12-20T05:02:42;101127.97;;;9.62;96.77
71976;BME280;60680;52.182;5.398;2022-12-20T05:05:09;101128.75;;;9.64;96.85
71976;BME280;60680;52.182;5.398;2022-12-20T05:07:36;101124.34;;;9.66;97.58
71976;BME280;60680;52.182;5.398;2022-12-20T05:10:03;101123.41;;;9.67;98.15
71976;BME280;60680;52.182;5.398;2022-12-20T05:12:30;101124.34;;;9.66;99.29
71976;BME280;60680;52.182;5.398;2022-12-20T05:14:56;101125.38;;;9.62;99.82
71976;BME280;60680;52.182;5.398;2022-12-20T05:17:23;101117.78;;;9.57;100.00
71976;BME280;60680;52.182;5.398;2022-12-20T05:19:51;101122.19;;;9.55;100.00
71976;BME280;60680;52.182;5.398;2022-12-20T05:22:17;101111.09;;;9.51;100.00
71976;BME280;60680;52.182;5.398;2022-12-20T05:25:02;101113.69;;;9.51;100.00
71976;BME280;60680;52.182;5.398;2022-12-20T05:27:47;101112.84;;;9.51;100.00
71976;BME280;60680;52.182;5.398;2022-12-20T05:30:14;101110.31;;;9.49;100.00
71976;BME280;60680;52.182;5.398;2022-12-20T05:32:41;101099.97;;;9.48;100.00
71976;BME280;60680;52.182;5.398;2022-12-20T05:35:08;101094.03;;;9.46;100.00
71976;BME280;60680;52.182;5.398;2022-12-20T05:37:34;101095.84;;;9.44;100.00
71976;BME280;60680;52.182;5.398;2022-12-20T05:40:01;101091.44;;;9.46;100.00
71976;BME280;60680;52.182;5.398;2022-12-20T05:42:27;101093.16;;;9.45;100.00
71976;BME280;60680;52.182;5.398;2022-12-20T05:44:54;101090.56;;;9.45;100.00
71976;BME280;60680;52.182;5.398;2022-12-20T05:47:21;101090.66;;;9.44;100.00
71976;BME280;60680;52.182;5.398;2022-12-20T05:49:47;101090.56;;;9.45;100.00
71976;BME280;60680;52.182;5.398;2022-12-20T05:52:14;101076.66;;;9.46;100.00
71976;BME280;60680;52.182;5.398;2022-12-20T05:54:40;101061.09;;;9.46;100.00
71976;BME280;60680;52.182;5.398;2022-12-20T05:57:07;101057.50;;;9.49;100.00
71976;BME280;60680;52.182;5.398;2022-12-20T05:59:33;101055.75;;;9.49;100.00
71976;BME280;60680;52.182;5.398;2022-12-20T06:02:00;101059.13;;;9.51;100.00
71976;BME280;60680;52.182;5.398;2022-12-20T06:04:26;101046.13;;;9.51;100.00
71976;BME280;60680;52.182;5.398;2022-12-20T06:06:53;101039.13;;;9.53;100.00
71976;BME280;60680;52.182;5.398;2022-12-20T06:09:20;101026.91;;;9.55;100.00
71976;BME280;60680;52.182;5.398;2022-12-20T06:11:46;101023.44;;;9.56;100.00
71976;BME280;60680;52.182;5.398;2022-12-20T06:14:13;101036.25;;;9.59;100.00
71976;BME280;60680;52.182;5.398;2022-12-20T06:16:39;101028.25;;;9.64;100.00
71976;BME280;60680;52.182;5.398;2022-12-20T06:19:06;101036.00;;;9.66;100.00
71976;BME280;60680;52.182;5.398;2022-12-20T06:21:33;101042.97;;;9.65;100.00
71976;BME280;60680;52.182;5.398;2022-12-20T06:23:59;101038.53;;;9.67;100.00
71976;BME280;60680;52.182;5.398;2022-12-20T06:26:27;101048.94;;;9.67;100.00
71976;BME280;60680;52.182;5.398;2022-12-20T06:29:05;101040.16;;;9.70;100.00
71976;BME280;60680;52.182;5.398;2022-12-20T06:31:35;101047.03;;;9.71;100.00
71976;BME280;60680;52.182;5.398;2022-12-20T06:34:02;101057.38;;;9.72;99.35
71976;BME280;60680;52.182;5.398;2022-12-20T06:36:29;101049.44;;;9.75;99.41
71976;BME280;60680;52.182;5.398;2022-12-20T06:38:55;101055.53;;;9.74;99.13
71976;BME280;60680;52.182;5.398;2022-12-20T06:41:22;101038.13;;;9.76;98.49
71976;BME280;60680;52.182;5.398;2022-12-20T06:43:49;101050.13;;;9.79;98.12
71976;BME280;60680;52.182;5.398;2022-12-20T06:46:15;101044.16;;;9.77;98.02
71976;BME280;60680;52.182;5.398;2022-12-20T06:48:42;101060.53;;;9.79;97.28
71976;BME280;60680;52.182;5.398;2022-12-20T06:51:08;101048.53;;;9.76;97.25
71976;BME280;60680;52.182;5.398;2022-12-20T06:53:36;101050.19;;;9.77;97.27
71976;BME280;60680;52.182;5.398;2022-12-20T06:56:03;101055.41;;;9.77;97.29
71976;BME280;60680;52.182;5.398;2022-12-20T06:58:30;101051.13;;;9.76;96.87
71976;BME280;60680;52.182;5.398;2022-12-20T07:00:56;101052.75;;;9.79;96.49
71976;BME280;60680;52.182;5.398;2022-12-20T07:03:23;101053.53;;;9.81;95.95
71976;BME280;60680;52.182;5.398;2022-12-20T07:05:51;101039.69;;;9.80;96.45
71976;BME280;60680;52.182;5.398;2022-12-20T07:08:20;101054.28;;;9.83;95.97
71976;BME280;60680;52.182;5.398;2022-12-20T07:10:47;101044.69;;;9.85;95.75
71976;BME280;60680;52.182;5.398;2022-12-20T07:13:14;101047.22;;;9.87;95.38
71976;BME280;60680;52.182;5.398;2022-12-20T07:15:41;101048.88;;;9.88;95.69
71976;BME280;60680;52.182;5.398;2022-12-20T07:18:09;101051.44;;;9.89;94.82
71976;BME280;60680;52.182;5.398;2022-12-20T07:20:36;101057.56;;;9.88;95.22
71976;BME280;60680;52.182;5.398;2022-12-20T07:23:03;101058.25;;;9.92;94.53
71976;BME280;60680;52.182;5.398;2022-12-20T07:25:29;101056.38;;;9.95;93.79
71976;BME280;60680;52.182;5.398;2022-12-20T07:27:56;101052.94;;;9.95;94.08
71976;BME280;60680;52.182;5.398;2022-12-20T07:30:23;101056.31;;;9.97;94.61
71976;BME280;60680;52.182;5.398;2022-12-20T07:32:51;101057.91;;;9.99;94.44
71976;BME280;60680;52.182;5.398;2022-12-20T07:35:18;101055.25;;;10.01;93.84
71976;BME280;60680;52.182;5.398;2022-12-20T07:37:44;101053.44;;;10.03;93.90
71976;BME280;60680;52.182;5.398;2022-12-20T07:40:12;101066.34;;;10.05;93.38
71976;BME280;60680;52.182;5.398;2022-12-20T07:42:40;101051.50;;;10.07;93.11
71976;BME280;60680;52.182;5.398;2022-12-20T07:45:14;101048.03;;;10.08;93.30
71976;BME280;60680;52.182;5.398;2022-12-20T07:47:41;101061.03;;;10.08;93.74
71976;BME280;60680;52.182;5.398;2022-12-20T07:50:08;101066.34;;;10.05;93.94
71976;BME280;60680;52.182;5.398;2022-12-20T07:52:35;101064.66;;;10.04;94.33
71976;BME280;60680;52.182;5.398;2022-12-20T07:55:04;101064.66;;;10.04;94.35
71976;BME280;60680;52.182;5.398;2022-12-20T07:57:54;101072.53;;;10.02;95.23
71976;BME280;60680;52.182;5.398;2022-12-20T08:00:22;101076.16;;;9.98;95.67
71976;BME280;60680;52.182;5.398;2022-12-20T08:05:25;101073.72;;;9.95;95.76
71976;BME280;60680;52.182;5.398;2022-12-20T08:07:55;101080.66;;;9.94;96.15
71976;BME280;60680;52.182;5.398;2022-12-20T08:10:25;101071.34;;;9.90;96.06
71976;BME280;60680;52.182;5.398;2022-12-20T08:12:53;101077.41;;;9.89;96.88
71976;BME280;60680;52.182;5.398;2022-12-20T08:15:21;101064.56;;;9.86;96.37
71976;BME280;60680;52.182;5.398;2022-12-20T08:17:48;101064.56;;;9.86;96.33
71976;BME280;60680;52.182;5.398;2022-12-20T08:20:16;101057.66;;;9.85;97.03
71976;BME280;60680;52.182;5.398;2022-12-20T08:22:42;101054.25;;;9.85;97.19
71976;BME280;60680;52.182;5.398;2022-12-20T08:25:09;101051.69;;;9.83;97.21
71976;BME280;60680;52.182;5.398;2022-12-20T08:27:37;101052.69;;;9.80;97.61
71976;BME280;60680;52.182;5.398;2022-12-20T08:30:05;101057.88;;;9.80;97.30
71976;BME280;60680;52.182;5.398;2022-12-20T08:32:32;101059.66;;;9.80;97.74
71976;BME280;60680;52.182;5.398;2022-12-20T08:34:59;101050.97;;;9.79;97.74
71976;BME280;60680;52.182;5.398;2022-12-20T08:37:26;101065.69;;;9.80;97.20
71976;BME280;60680;52.182;5.398;2022-12-20T08:39:52;101062.25;;;9.80;97.12
71976;BME280;60680;52.182;5.398;2022-12-20T08:42:20;101055.34;;;9.79;96.66
71976;BME280;60680;52.182;5.398;2022-12-20T08:44:46;101051.84;;;9.80;97.05
71976;BME280;60680;52.182;5.398;2022-12-20T08:47:13;101055.28;;;9.80;97.08
71976;BME280;60680;52.182;5.398;2022-12-20T08:49:40;101041.44;;;9.80;96.99
71976;BME280;60680;52.182;5.398;2022-12-20T08:52:13;101053.53;;;9.81;95.98
71976;BME280;60680;52.182;5.398;2022-12-20T08:54:40;101068.34;;;9.79;96.49
71976;BME280;60680;52.182;5.398;2022-12-20T08:57:07;101052.81;;;9.77;96.78
71976;BME280;60680;52.182;5.398;2022-12-20T08:59:33;101054.56;;;9.77;96.88
71976;BME280;60680;52.182;5.398;2022-12-20T09:02:00;101054.56;;;9.77;96.80
71976;BME280;60680;52.182;5.398;2022-12-20T09:04:27;101057.25;;;9.75;97.86
71976;BME280;60680;52.182;5.398;2022-12-20T09:06:54;101061.56;;;9.75;97.79
71976;BME280;60680;52.182;5.398;2022-12-20T09:09:20;101056.47;;;9.73;98.37
71976;BME280;60680;52.182;5.398;2022-12-20T09:11:47;101053.16;;;9.70;99.33
71976;BME280;60680;52.182;5.398;2022-12-20T09:14:14;101049.78;;;9.68;99.28
71976;BME280;60680;52.182;5.398;2022-12-20T09:16:40;101048.94;;;9.67;99.52
71976;BME280;60680;52.182;5.398;2022-12-20T09:19:11;101056.78;;;9.66;100.00
71976;BME280;60680;52.182;5.398;2022-12-20T09:21:38;101057.69;;;9.65;100.00
71976;BME280;60680;52.182;5.398;2022-12-20T09:24:05;101058.47;;;9.67;100.00
71976;BME280;60680;52.182;5.398;2022-12-20T09:26:32;101057.78;;;9.63;100.00
71976;BME280;60680;52.182;5.398;2022-12-20T09:29:00;101064.66;;;9.64;100.00
71976;BME280;60680;52.182;5.398;2022-12-20T09:31:30;101049.97;;;9.63;100.00
71976;BME280;60680;52.182;5.398;2022-12-20T09:33:58;101051.81;;;9.61;100.00
71976;BME280;60680;52.182;5.398;2022-12-20T09:36:26;101063.88;;;9.62;100.00
71976;BME280;60680;52.182;5.398;2022-12-20T09:38:54;101061.34;;;9.61;100.00
71976;BME280;60680;52.182;5.398;2022-12-20T09:41:33;101057.84;;;9.62;100.00
71976;BME280;60680;52.182;5.398;2022-12-20T09:44:26;101065.41;;;9.66;100.00
71976;BME280;60680;52.182;5.398;2022-12-20T09:46:58;101063.75;;;9.65;100.00
71976;BME280;60680;52.182;5.398;2022-12-20T09:49:39;101066.34;;;9.65;100.00
71976;BME280;60680;52.182;5.398;2022-12-20T09:52:34;101067.13;;;9.67;100.00
71976;BME280;60680;52.182;5.398;2022-12-20T10:00:49;101073.22;;;9.66;100.00
71976;BME280;60680;52.182;5.398;2022-12-20T10:03:30;101068.84;;;9.67;100.00
71976;BME280;60680;52.182;5.398;2022-12-20T10:06:51;101070.69;;;9.65;100.00
71976;BME280;60680;52.182;5.398;2022-12-20T10:09:02;101065.38;;;9.68;100.00
71976;BME280;60680;52.182;5.398;2022-12-20T10:17:12;101047.03;;;9.71;100.00
71976;BME280;60680;52.182;5.398;2022-12-20T10:22:24;101054.72;;;9.74;100.00
71976;BME280;60680;52.182;5.398;2022-12-20T10:25:01;101050.28;;;9.76;100.00
71976;BME280;60680;52.182;5.398;2022-12-20T10:27:40;101055.50;;;9.76;100.00
71976;BME280;60680;52.182;5.398;2022-12-20T10:30:19;101049.38;;;9.77;100.00
71976;BME280;60680;52.182;5.398;2022-12-20T10:32:48;101050.13;;;9.79;100.00
71976;BME280;60680;52.182;5.398;2022-12-20T10:35:27;101046.66;;;9.80;100.00
71976;BME280;60680;52.182;5.398;2022-12-20T10:38:00;101046.50;;;9.83;100.00
71976;BME280;60680;52.182;5.398;2022-12-20T10:40:40;101043.91;;;9.83;100.00
71976;BME280;60680;52.182;5.398;2022-12-20T10:43:38;101038.69;;;9.83;100.00
71976;BME280;60680;52.182;5.398;2022-12-20T10:46:08;101041.44;;;9.80;100.00
71976;BME280;60680;52.182;5.398;2022-12-20T10:48:38;101031.13;;;9.78;100.00
71976;BME280;60680;52.182;5.398;2022-12-20T10:54:01;101036.25;;;9.80;100.00
71976;BME280;60680;52.182;5.398;2022-12-20T10:56:33;101035.31;;;9.81;100.00
71976;BME280;60680;52.182;5.398;2022-12-20T11:01:45;101023.81;;;9.87;100.00
71976;BME280;60680;52.182;5.398;2022-12-20T11:04:34;101015.03;;;9.89;100.00
71976;BME280;60680;52.182;5.398;2022-12-20T11:07:23;101019.34;;;9.90;100.00
71976;BME280;60680;52.182;5.398;2022-12-20T11:09:54;101017.56;;;9.91;100.00
71976;BME280;60680;52.182;5.398;2022-12-20T11:12:34;101017.56;;;9.91;100.00
71976;BME280;60680;52.182;5.398;2022-12-20T11:15:10;101018.41;;;9.91;100.00
71976;BME280;60680;52.182;5.398;2022-12-20T11:17:43;101009.69;;;9.92;100.00
71976;BME280;60680;52.182;5.398;2022-12-20T11:20:28;101025.28;;;9.92;100.00
71976;BME280;60680;52.182;5.398;2022-12-20T11:23:17;101007.88;;;9.94;100.00
71976;BME280;60680;52.182;5.398;2022-12-20T11:25:50;101021.78;;;9.93;100.00
71976;BME280;60680;52.182;5.398;2022-12-20T11:45:44;101004.22;;;9.98;100.00
71976;BME280;60680;52.182;5.398;2022-12-20T11:50:48;101011.25;;;9.96;100.00
71976;BME280;60680;52.182;5.398;2022-12-20T11:53:33;100993.81;;;9.98;100.00
71976;BME280;60680;52.182;5.398;2022-12-20T11:56:13;101005.97;;;9.98;100.00
71976;BME280;60680;52.182;5.398;2022-12-20T11:58:54;100998.19;;;9.98;100.00
71976;BME280;60680;52.182;5.398;2022-12-20T12:01:34;101004.22;;;9.98;100.00
71976;BME280;60680;52.182;5.398;2022-12-20T12:04:08;101006.91;;;9.97;100.00
71976;BME280;60680;52.182;5.398;2022-12-20T12:06:41;100997.34;;;9.97;100.00
71976;BME280;60680;52.182;5.398;2022-12-20T12:09:35;101001.63;;;9.98;100.00
71976;BME280;60680;52.182;5.398;2022-12-20T12:14:49;100996.50;;;9.97;100.00
71976;BME280;60680;52.182;5.398;2022-12-20T12:17:35;101004.16;;;10.00;100.00
71976;BME280;60680;52.182;5.398;2022-12-20T12:23:28;100984.97;;;10.03;100.00
71976;BME280;60680;52.182;5.398;2022-12-20T12:26:04;100980.69;;;10.02;100.00
71976;BME280;60680;52.182;5.398;2022-12-20T12:28:33;100972.91;;;10.02;100.00
71976;BME280;60680;52.182;5.398;2022-12-20T12:31:05;100988.34;;;10.05;100.00
71976;BME280;60680;52.182;5.398;2022-12-20T12:33:47;100981.31;;;10.07;100.00
71976;BME280;60680;52.182;5.398;2022-12-20T12:36:31;100991.72;;;10.07;100.00
71976;BME280;60680;52.182;5.398;2022-12-20T12:47:11;100991.81;;;10.05;100.00
71976;BME280;60680;52.182;5.398;2022-12-20T12:49:39;100990.03;;;10.06;100.00
71976;BME280;60680;52.182;5.398;2022-12-20T12:52:27;100985.63;;;10.08;100.00
71976;BME280;60680;52.182;5.398;2022-12-20T12:55:01;100989.13;;;10.07;100.00
71976;BME280;60680;52.182;5.398;2022-12-20T12:57:27;101004.72;;;10.07;100.00
71976;BME280;60680;52.182;5.398;2022-12-20T12:59:54;101005.66;;;10.06;100.00
71976;BME280;60680;52.182;5.398;2022-12-20T13:10:00;100990.94;;;10.05;100.00
71976;BME280;60680;52.182;5.398;2022-12-20T13:17:52;100989.13;;;10.07;100.00
71976;BME280;60680;52.182;5.398;2022-12-20T13:25:49;100988.28;;;10.06;100.00
71976;BME280;60680;52.182;5.398;2022-12-20T13:33:44;100995.25;;;10.06;100.00
71976;BME280;60680;52.182;5.398;2022-12-20T13:38:58;100994.41;;;10.05;100.00
71976;BME280;60680;52.182;5.398;2022-12-20T13:41:38;100996.13;;;10.05;100.00
71976;BME280;60680;52.182;5.398;2022-12-20T13:47:05;100997.84;;;10.06;100.00
71976;BME280;60680;52.182;5.398;2022-12-20T13:49:38;100983.13;;;10.05;100.00
71976;BME280;60680;52.182;5.398;2022-12-20T13:52:23;100991.81;;;10.05;100.00
71976;BME280;60680;52.182;5.398;2022-12-20T13:54:55;100992.66;;;10.06;100.00
71976;BME280;60680;52.182;5.398;2022-12-20T13:59:57;100987.44;;;10.06;100.00
71976;BME280;60680;52.182;5.398;2022-12-20T14:02:35;100990.03;;;10.06;100.00
71976;BME280;60680;52.182;5.398;2022-12-20T14:05:12;100987.50;;;10.04;100.00
71976;BME280;60680;52.182;5.398;2022-12-20T14:07:41;100997.00;;;10.05;100.00
71976;BME280;60680;52.182;5.398;2022-12-20T14:10:20;100996.13;;;10.05;100.00
71976;BME280;60680;52.182;5.398;2022-12-20T14:12:49;100989.22;;;10.05;100.00
71976;BME280;60680;52.182;5.398;2022-12-20T14:17:52;100982.31;;;10.04;100.00
71976;BME280;60680;52.182;5.398;2022-12-20T14:20:23;100981.31;;;10.07;100.00
71976;BME280;60680;52.182;5.398;2022-12-20T14:22:55;100990.03;;;10.06;100.00
71976;BME280;60680;52.182;5.398;2022-12-20T14:25:41;100995.16;;;10.07;100.00
71976;BME280;60680;52.182;5.398;2022-12-20T14:28:38;100993.41;;;10.08;100.00
71976;BME280;60680;52.182;5.398;2022-12-20T14:31:28;101001.22;;;10.08;100.00
71976;BME280;60680;52.182;5.398;2022-12-20T14:36:44;101001.28;;;10.06;100.00
71976;BME280;60680;52.182;5.398;2022-12-20T14:39:30;101008.25;;;10.06;100.00
71976;BME280;60680;52.182;5.398;2022-12-20T14:42:01;101005.72;;;10.04;100.00
71976;BME280;60680;52.182;5.398;2022-12-20T14:44:30;100999.66;;;10.04;100.00
71976;BME280;60680;52.182;5.398;2022-12-20T14:47:03;100999.66;;;10.04;100.00
71976;BME280;60680;52.182;5.398;2022-12-20T14:49:37;100997.13;;;10.02;100.00
71976;BME280;60680;52.182;5.398;2022-12-20T14:55:21;100977.09;;;10.04;100.00
71976;BME280;60680;52.182;5.398;2022-12-20T14:57:52;100977.25;;;10.01;100.00
71976;BME280;60680;52.182;5.398;2022-12-20T15:00:27;100966.78;;;10.03;100.00
71976;BME280;60680;52.182;5.398;2022-12-20T15:08:17;100972.06;;;10.01;100.00
71976;BME280;60680;52.182;5.398;2022-12-20T15:10:51;100979.09;;;9.99;100.00